createdAt,value
2019-02-16T00:01:04.878Z,36.08
2019-02-16T00:04:07.405Z,18.07
2019-02-16T00:07:10.444Z,35.40
2019-02-16T00:10:13.227Z,36.42
2019-02-16T00:13:15.756Z,31.97
2019-02-16T00:16:18.794Z,37.10
2019-02-16T00:19:21.579Z,40.92
2019-02-16T00:22:24.108Z,42.20
2019-02-16T00:25:26.645Z,33.28
2019-02-16T00:28:29.930Z,39.63
2019-02-16T00:31:33.489Z,35.43
2019-02-16T00:34:43.434Z,42.20
2019-02-16T00:37:46.222Z,39.38
2019-02-16T00:40:48.745Z,36.60
2019-02-16T00:43:51.528Z,18.75
2019-02-16T00:46:54.059Z,31.70
2019-02-16T00:49:56.598Z,36.80
2019-02-16T00:52:59.116Z,40.30
2019-02-16T00:56:01.647Z,42.62
2019-02-16T00:59:04.684Z,47.23
2019-02-16T01:02:07.468Z,32.85
2019-02-16T01:05:10.254Z,22.40
2019-02-16T01:08:13.035Z,40.43
2019-02-16T01:11:15.563Z,48.00
2019-02-16T01:14:18.096Z,42.50
2019-02-16T01:20:38.252Z,35.68
2019-02-16T01:26:55.848Z,39.40
2019-02-16T01:29:54.998Z,24.72
2019-02-16T01:32:58.096Z,15.78
2019-02-16T01:36:03.692Z,23.92
2019-02-16T01:39:06.217Z,40.50
2019-02-16T01:42:08.745Z,44.25
2019-02-16T01:45:12.553Z,40.00
2019-02-16T01:48:15.084Z,40.60
2019-02-16T01:51:17.864Z,38.78
2019-02-16T01:54:20.656Z,40.10
2019-02-16T01:57:19.596Z,41.02
2019-02-16T02:00:22.377Z,31.82
2019-02-16T02:03:24.908Z,41.10
2019-02-16T02:06:27.700Z,21.45
2019-02-16T02:09:30.472Z,15.75
2019-02-16T02:12:29.688Z,39.92
2019-02-16T02:15:43.725Z,17.30
2019-02-16T02:18:46.506Z,22.87
2019-02-16T02:21:49.037Z,36.03
2019-02-16T02:24:51.568Z,19.82
2019-02-16T02:27:54.091Z,24.80
2019-02-16T02:30:56.627Z,34.18
2019-02-16T02:33:59.658Z,18.98
2019-02-16T02:37:02.445Z,25.10
2019-02-16T02:40:08.308Z,22.30
2019-02-16T02:43:11.093Z,46.25
2019-02-16T02:46:15.146Z,16.27
2019-02-16T02:49:17.966Z,34.80
2019-02-16T02:52:20.713Z,18.70
2019-02-16T02:55:26.322Z,26.10
2019-02-16T02:58:32.944Z,26.70
2019-02-16T03:01:35.979Z,34.92
2019-02-16T03:04:39.017Z,34.53
2019-02-16T03:07:41.803Z,16.10
2019-02-16T03:10:45.608Z,19.52
2019-02-16T03:13:49.749Z,34.27
2019-02-16T03:16:52.968Z,40.58
2019-02-16T03:19:56.290Z,35.52
2019-02-16T03:23:20.051Z,19.48
2019-02-16T03:26:37.675Z,15.08
2019-02-16T03:29:51.992Z,27.40
2019-02-16T03:33:05.799Z,35.13
2019-02-16T03:36:20.072Z,14.33
2019-02-16T03:39:33.867Z,30.92
2019-02-16T03:42:37.673Z,15.70
2019-02-16T03:45:40.458Z,31.73
2019-02-16T03:48:42.985Z,36.50
2019-02-16T03:51:45.258Z,13.83
2019-02-16T03:54:48.042Z,14.40
2019-02-16T03:57:52.105Z,35.20
2019-02-16T04:00:54.891Z,23.02
2019-02-16T04:03:57.942Z,31.68
2019-02-16T04:07:01.227Z,20.88
2019-02-16T04:10:04.265Z,20.12
2019-02-16T04:13:07.048Z,12.43
2019-02-16T04:16:09.836Z,12.85
2019-02-16T04:19:13.133Z,15.58
2019-02-16T04:22:24.281Z,20.37
2019-02-16T04:25:18.451Z,12.55
2019-02-16T04:28:24.557Z,19.37
2019-02-16T04:31:23.252Z,28.77
2019-02-16T04:34:25.804Z,22.05
2019-02-16T04:37:28.552Z,17.95
2019-02-16T04:40:31.083Z,24.60
2019-02-16T04:43:34.888Z,31.15
2019-02-16T04:46:37.427Z,25.82
2019-02-16T04:49:40.714Z,12.82
2019-02-16T04:52:54.761Z,18.55
2019-02-16T04:55:57.544Z,20.32
2019-02-16T04:59:00.076Z,30.40
2019-02-16T05:02:02.631Z,17.23
2019-02-16T05:05:05.391Z,21.93
2019-02-16T05:08:08.171Z,16.40
2019-02-16T05:11:10.699Z,22.90
2019-02-16T05:14:13.481Z,14.50
2019-02-16T05:17:17.289Z,13.20
2019-02-16T05:20:20.072Z,31.20
2019-02-16T05:23:23.115Z,25.37
2019-02-16T05:26:25.384Z,11.22
2019-02-16T05:29:28.174Z,21.25
2019-02-16T05:32:30.700Z,13.78
2019-02-16T05:35:33.231Z,26.62
2019-02-16T05:38:35.752Z,16.07
2019-02-16T05:41:38.543Z,12.58
2019-02-16T05:44:42.347Z,12.70
2019-02-16T05:47:45.390Z,12.82
2019-02-16T05:50:48.205Z,12.47
2019-02-16T05:53:52.025Z,18.27
2019-02-16T05:56:55.785Z,14.75
2019-02-16T05:59:58.837Z,29.48
2019-02-16T06:03:01.356Z,29.77
2019-02-16T06:06:04.435Z,25.40
2019-02-16T06:09:07.180Z,25.82
2019-02-16T06:12:05.772Z,18.07
2019-02-16T06:15:08.906Z,14.90
2019-02-16T06:18:11.432Z,14.40
2019-02-16T06:21:14.234Z,22.95
2019-02-16T06:24:13.732Z,15.83
2019-02-16T06:27:16.715Z,15.70
2019-02-16T06:30:19.240Z,15.23
2019-02-16T06:33:22.026Z,30.12
2019-02-16T06:36:24.818Z,14.53
2019-02-16T06:39:27.853Z,25.52
2019-02-16T06:42:30.633Z,15.55
2019-02-16T06:45:37.002Z,13.83
2019-02-16T06:48:40.555Z,16.20
2019-02-16T06:51:43.336Z,23.55
2019-02-16T06:54:46.138Z,27.40
2019-02-16T06:57:49.416Z,31.27
2019-02-16T07:00:51.944Z,17.57
2019-02-16T07:03:54.729Z,13.90
2019-02-16T07:06:57.516Z,14.87
2019-02-16T07:10:00.041Z,13.15
2019-02-16T07:13:02.570Z,17.00
2019-02-16T07:16:05.611Z,14.68
2019-02-16T07:19:08.144Z,26.90
2019-02-16T07:22:10.664Z,21.55
2019-02-16T07:25:13.193Z,26.77
2019-02-16T07:28:16.236Z,32.35
2019-02-16T07:31:19.019Z,35.52
2019-02-16T07:34:21.802Z,15.58
2019-02-16T07:37:24.586Z,15.32
2019-02-16T07:40:27.119Z,19.05
2019-02-16T07:43:42.699Z,19.82
2019-02-16T07:46:45.484Z,22.42
2019-02-16T07:49:48.010Z,28.40
2019-02-16T07:52:50.795Z,24.85
2019-02-16T07:55:53.582Z,25.32
2019-02-16T07:58:56.362Z,23.38
2019-02-16T08:01:59.659Z,17.50
2019-02-16T08:05:02.441Z,17.27
2019-02-16T08:08:04.717Z,20.37
2019-02-16T08:11:08.520Z,21.30
2019-02-16T08:14:07.853Z,22.77
2019-02-16T08:17:14.348Z,18.15
2019-02-16T08:20:16.622Z,25.55
2019-02-16T08:23:19.143Z,20.65
2019-02-16T08:26:26.844Z,18.20
2019-02-16T08:29:24.713Z,26.50
2019-02-16T08:32:27.498Z,15.95
2019-02-16T08:35:30.539Z,14.90
2019-02-16T08:38:33.324Z,13.95
2019-02-16T08:41:36.106Z,16.52
2019-02-16T08:44:38.633Z,17.12
2019-02-16T08:47:41.690Z,13.55
2019-02-16T08:50:44.457Z,15.05
2019-02-16T08:53:49.781Z,22.95
2019-02-16T08:56:50.539Z,18.02
2019-02-16T08:59:52.809Z,30.88
2019-02-16T09:02:55.592Z,27.80
2019-02-16T09:05:58.122Z,21.75
2019-02-16T09:09:00.905Z,19.23
2019-02-16T09:12:05.847Z,19.02
2019-02-16T09:15:13.896Z,26.62
2019-02-16T09:18:16.424Z,18.85
2019-02-16T09:21:19.465Z,14.35
2019-02-16T09:24:22.763Z,21.27
2019-02-16T09:27:25.546Z,17.87
2019-02-16T09:30:28.846Z,25.88
2019-02-16T09:33:31.627Z,24.47
2019-02-16T09:36:37.740Z,27.93
2019-02-16T09:39:40.264Z,15.48
2019-02-16T09:42:43.308Z,15.85
2019-02-16T09:45:46.604Z,22.93
2019-02-16T09:48:50.668Z,24.07
2019-02-16T09:51:53.708Z,26.65
2019-02-16T09:54:57.768Z,22.90
2019-02-16T09:58:00.811Z,22.80
2019-02-16T10:01:04.621Z,23.05
2019-02-16T10:04:07.151Z,21.87
2019-02-16T10:07:10.442Z,17.95
2019-02-16T10:10:15.787Z,18.02
2019-02-16T10:13:18.575Z,23.47
2019-02-16T10:16:21.616Z,15.43
2019-02-16T10:19:24.661Z,18.98
2019-02-16T10:22:27.184Z,15.72
2019-02-16T10:25:29.709Z,17.15
2019-02-16T10:28:32.493Z,14.30
2019-02-16T10:31:35.533Z,20.05
2019-02-16T10:34:41.657Z,11.85
2019-02-16T10:37:44.432Z,17.25
2019-02-16T10:40:48.239Z,20.75
2019-02-16T10:43:52.043Z,17.17
2019-02-16T10:46:55.591Z,8.70
2019-02-16T10:49:58.376Z,13.10
2019-02-16T10:53:00.908Z,16.23
2019-02-16T10:56:03.947Z,11.25
2019-02-16T10:59:06.984Z,14.43
2019-02-16T11:02:09.778Z,15.83
2019-02-16T11:05:12.808Z,15.55
2019-02-16T11:08:19.435Z,13.48
2019-02-16T11:11:22.471Z,17.95
2019-02-16T11:14:26.286Z,17.62
2019-02-16T11:17:29.065Z,15.95
2019-02-16T11:20:31.596Z,14.50
2019-02-16T11:23:34.119Z,10.28
2019-02-16T11:26:36.904Z,11.48
2019-02-16T11:29:39.689Z,18.27
2019-02-16T11:32:38.988Z,16.15
2019-02-16T11:35:41.933Z,10.15
2019-02-16T11:38:44.456Z,9.35
2019-02-16T11:41:49.802Z,12.50
2019-02-16T11:44:52.842Z,15.70
2019-02-16T11:47:55.370Z,11.80
2019-02-16T11:50:59.179Z,11.30
2019-02-16T11:54:01.706Z,17.75
2019-02-16T11:57:05.262Z,9.48
2019-02-16T12:00:08.553Z,15.05
2019-02-16T12:03:22.602Z,14.98
2019-02-16T12:06:26.409Z,10.35
2019-02-16T12:09:29.704Z,12.03
2019-02-16T12:12:32.493Z,9.65
2019-02-16T12:15:31.438Z,12.28
2019-02-16T12:18:35.238Z,7.08
2019-02-16T12:21:38.029Z,12.63
2019-02-16T12:24:41.064Z,10.10
2019-02-16T12:27:43.854Z,10.93
2019-02-16T12:30:46.383Z,9.50
2019-02-16T12:33:49.170Z,11.70
2019-02-16T12:36:52.969Z,9.63
2019-02-16T12:40:00.876Z,10.45
2019-02-16T12:42:59.885Z,10.95
2019-02-16T12:46:03.624Z,13.50
2019-02-16T12:49:06.411Z,13.60
2019-02-16T12:52:09.197Z,10.48
2019-02-16T12:55:14.623Z,9.65
2019-02-16T12:58:14.767Z,14.20
2019-02-16T13:01:17.551Z,10.43
2019-02-16T13:04:27.250Z,7.17
2019-02-16T13:07:30.294Z,6.78
2019-02-16T13:10:33.065Z,10.38
2019-02-16T13:13:35.850Z,10.28
2019-02-16T13:16:46.058Z,6.08
2019-02-16T13:19:50.121Z,8.50
2019-02-16T13:22:52.648Z,7.62
2019-02-16T13:25:55.687Z,11.83
2019-02-16T13:28:58.992Z,11.95
2019-02-16T13:32:02.536Z,9.65
2019-02-16T13:35:05.321Z,10.03
2019-02-16T13:38:09.132Z,15.80
2019-02-16T13:41:12.169Z,8.85
2019-02-16T13:44:15.208Z,11.68
2019-02-16T13:47:17.990Z,8.98
2019-02-16T13:50:20.776Z,10.20
2019-02-16T13:53:24.379Z,7.30
2019-02-16T13:56:26.860Z,7.00
2019-02-16T13:59:29.384Z,8.83
2019-02-16T14:02:28.582Z,6.58
2019-02-16T14:05:31.623Z,11.43
2019-02-16T14:08:35.434Z,12.20
2019-02-16T14:11:37.963Z,8.53
2019-02-16T14:14:40.744Z,8.75
2019-02-16T14:17:43.782Z,7.55
2019-02-16T14:20:46.567Z,10.80
2019-02-16T14:23:49.094Z,7.17
2019-02-16T14:26:51.624Z,8.38
2019-02-16T14:29:54.418Z,8.75
2019-02-16T14:33:00.263Z,7.28
2019-02-16T14:36:03.304Z,6.53
2019-02-16T14:39:06.088Z,4.50
2019-02-16T14:42:08.875Z,4.08
2019-02-16T14:45:12.681Z,7.53
2019-02-16T14:48:15.720Z,8.78
2019-02-16T14:51:18.504Z,6.75
2019-02-16T14:54:21.291Z,8.40
2019-02-16T14:57:24.844Z,9.63
2019-02-16T15:00:27.369Z,6.12
2019-02-16T15:03:30.411Z,8.58
2019-02-16T15:06:33.196Z,7.60
2019-02-16T15:09:35.720Z,9.05
2019-02-16T15:12:38.506Z,4.12
2019-02-16T15:15:41.546Z,7.33
2019-02-16T15:18:44.071Z,9.75
2019-02-16T15:21:47.126Z,4.70
2019-02-16T15:24:50.419Z,4.62
2019-02-16T15:27:52.935Z,10.10
2019-02-16T15:30:55.464Z,9.70
2019-02-16T15:33:58.505Z,4.22
2019-02-16T15:37:00.774Z,4.55
2019-02-16T15:40:00.291Z,6.40
2019-02-16T15:43:03.795Z,6.65
2019-02-16T15:46:06.831Z,7.92
2019-02-16T15:49:09.608Z,8.50
2019-02-16T15:52:12.394Z,17.52
2019-02-16T15:55:16.203Z,19.42
2019-02-16T15:58:19.531Z,18.70
2019-02-16T16:01:22.075Z,12.85
2019-02-16T16:04:24.552Z,12.20
2019-02-16T16:07:23.470Z,14.10
2019-02-16T16:10:26.546Z,21.42
2019-02-16T16:13:29.322Z,17.07
2019-02-16T16:16:31.594Z,7.78
2019-02-16T16:19:43.081Z,11.05
2019-02-16T16:22:45.863Z,6.83
2019-02-16T16:25:48.394Z,11.43
2019-02-16T16:29:00.198Z,9.80
2019-02-16T16:31:54.474Z,15.98
2019-02-16T16:34:57.514Z,12.25
2019-02-16T16:38:00.298Z,19.48
2019-02-16T16:41:05.643Z,10.88
2019-02-16T16:44:08.427Z,9.35
2019-02-16T16:47:11.211Z,8.95
2019-02-16T16:50:18.749Z,12.45
2019-02-16T16:53:18.315Z,21.33
2019-02-16T16:56:28.402Z,9.38
2019-02-16T16:59:24.141Z,12.47
2019-02-16T17:02:27.175Z,15.35
2019-02-16T17:05:29.704Z,18.23
2019-02-16T17:08:32.487Z,14.43
2019-02-16T17:11:31.759Z,16.62
2019-02-16T17:14:34.217Z,15.78
2019-02-16T17:17:36.744Z,19.77
2019-02-16T17:20:39.531Z,16.80
2019-02-16T17:23:43.081Z,18.23
2019-02-16T17:26:45.608Z,15.60
2019-02-16T17:29:48.398Z,18.67
2019-02-16T17:32:51.432Z,18.70
2019-02-16T17:35:53.961Z,14.68
2019-02-16T17:38:58.279Z,17.95
2019-02-16T17:42:01.065Z,16.40
2019-02-16T17:45:03.849Z,17.52
2019-02-16T17:48:06.634Z,17.23
2019-02-16T17:51:09.931Z,15.53
2019-02-16T17:54:12.455Z,31.77
2019-02-16T17:57:15.243Z,24.32
2019-02-16T18:00:18.280Z,16.52
2019-02-16T18:03:21.065Z,18.57
2019-02-16T18:06:23.600Z,14.90
2019-02-16T18:09:26.649Z,20.10
2019-02-16T18:12:29.162Z,14.75
2019-02-16T18:15:32.971Z,17.57
2019-02-16T18:18:37.668Z,19.73
2019-02-16T18:21:38.283Z,21.25
2019-02-16T18:24:41.325Z,20.77
2019-02-16T18:27:46.674Z,21.35
2019-02-16T18:30:49.457Z,20.92
2019-02-16T18:33:53.259Z,27.25
2019-02-16T18:36:56.051Z,26.05
2019-02-16T18:40:00.889Z,32.00
2019-02-16T18:43:03.147Z,23.87
2019-02-16T18:46:05.672Z,29.00
2019-02-16T18:49:08.714Z,22.30
2019-02-16T18:52:11.270Z,26.37
2019-02-16T18:55:14.284Z,31.42
2019-02-16T18:58:17.069Z,23.83
2019-02-16T19:01:20.143Z,33.02
2019-02-16T19:04:22.890Z,31.00
2019-02-16T19:07:25.697Z,26.82
2019-02-16T19:10:28.461Z,26.25
2019-02-16T19:13:31.243Z,26.33
2019-02-16T19:16:34.286Z,38.50
2019-02-16T19:19:37.071Z,31.02
2019-02-16T19:22:39.851Z,27.93
2019-02-16T19:25:43.402Z,41.42
2019-02-16T19:28:48.111Z,21.57
2019-02-16T19:31:58.185Z,24.80
2019-02-16T19:34:55.337Z,28.38
2019-02-16T19:37:54.218Z,25.48
2019-02-16T19:40:57.325Z,23.07
2019-02-16T19:44:04.460Z,21.87
2019-02-16T19:47:07.496Z,30.75
2019-02-16T19:50:10.030Z,24.98
2019-02-16T19:53:14.091Z,20.85
2019-02-16T19:56:13.033Z,22.20
2019-02-16T19:59:18.138Z,21.97
2019-02-16T20:02:20.650Z,29.18
2019-02-16T20:05:23.690Z,22.15
2019-02-16T20:08:26.989Z,21.75
2019-02-16T20:11:29.519Z,22.67
2019-02-16T20:14:32.570Z,18.02
2019-02-16T20:17:44.554Z,21.05
2019-02-16T20:20:54.255Z,25.92
2019-02-16T20:23:58.056Z,20.35
2019-02-16T20:27:03.146Z,27.42
2019-02-16T20:30:06.702Z,22.98
2019-02-16T20:33:10.257Z,27.27
2019-02-16T20:36:14.315Z,29.07
2019-02-16T20:39:17.103Z,38.10
2019-02-16T20:42:19.629Z,26.97
2019-02-16T20:45:22.410Z,28.67
2019-02-16T20:48:25.198Z,25.65
2019-02-16T20:51:27.721Z,27.25
2019-02-16T20:54:30.760Z,30.92
2019-02-16T20:57:33.549Z,25.68
2019-02-16T21:00:36.842Z,37.00
2019-02-16T21:03:39.885Z,26.80
2019-02-16T21:06:42.923Z,23.65
2019-02-16T21:09:45.714Z,19.25
2019-02-16T21:12:49.187Z,23.80
2019-02-16T21:15:53.832Z,19.95
2019-02-16T21:18:58.944Z,27.27
2019-02-16T21:22:02.987Z,25.37
2019-02-16T21:25:05.773Z,21.07
2019-02-16T21:28:08.554Z,18.70
2019-02-16T21:34:26.669Z,24.05
2019-02-16T21:37:29.709Z,21.10
2019-02-16T21:40:32.750Z,19.25
2019-02-16T21:43:35.532Z,27.85
2019-02-16T21:46:35.749Z,19.32
2019-02-16T21:49:39.495Z,20.55
2019-02-16T21:52:41.581Z,19.20
2019-02-16T21:55:46.184Z,24.98
2019-02-16T21:58:48.942Z,25.70
2019-02-16T22:01:51.465Z,20.10
2019-02-16T22:04:54.249Z,29.90
2019-02-16T22:07:57.033Z,22.95
2019-02-16T22:11:07.240Z,34.10
2019-02-16T22:14:10.282Z,31.25
2019-02-16T22:17:13.070Z,26.37
2019-02-16T22:20:15.594Z,33.48
2019-02-16T22:23:18.131Z,29.98
2019-02-16T22:26:21.162Z,27.87
2019-02-16T22:29:23.432Z,19.50
2019-02-16T22:32:27.246Z,27.58
2019-02-16T22:35:30.036Z,23.12
2019-02-16T22:38:33.065Z,17.52
2019-02-16T22:41:35.850Z,22.13
2019-02-16T22:44:39.915Z,24.85
2019-02-16T22:47:42.706Z,18.23
2019-02-16T22:50:45.234Z,17.45
2019-02-16T22:53:48.777Z,14.25
2019-02-16T22:56:51.310Z,15.75
2019-02-16T22:59:54.095Z,28.67
2019-02-16T23:02:56.874Z,33.60
2019-02-16T23:06:00.938Z,12.15
2019-02-16T23:09:04.748Z,30.85
2019-02-16T23:12:07.278Z,20.88
2019-02-16T23:15:10.313Z,17.20
2019-02-16T23:18:12.839Z,15.45
2019-02-16T23:21:15.884Z,22.90
2019-02-16T23:24:18.923Z,13.08
2019-02-16T23:27:21.452Z,13.85
2019-02-16T23:30:23.722Z,16.65
2019-02-16T23:33:26.510Z,19.20
2019-02-16T23:36:36.458Z,27.60
2019-02-16T23:39:39.242Z,32.20
2019-02-16T23:42:42.795Z,26.87
2019-02-16T23:45:45.582Z,26.17
2019-02-16T23:48:48.361Z,26.55
2019-02-16T23:51:50.889Z,34.73
2019-02-16T23:54:53.674Z,31.65
2019-02-16T23:57:56.457Z,32.15
